createdAt,value
2023-02-26T00:00:21.568Z,100.00
2023-02-26T00:02:50.576Z,100.00
2023-02-26T00:05:19.496Z,100.00
2023-02-26T00:07:48.438Z,100.00
2023-02-26T00:10:17.216Z,100.00
2023-02-26T00:12:48.822Z,100.00
2023-02-26T00:15:19.363Z,100.00
2023-02-26T00:17:56.790Z,100.00
2023-02-26T00:20:26.728Z,100.00
2023-02-26T00:22:57.465Z,100.00
2023-02-26T00:25:27.090Z,100.00
2023-02-26T00:27:59.169Z,100.00
2023-02-26T00:30:30.210Z,100.00
2023-02-26T00:33:00.372Z,100.00
2023-02-26T00:35:30.150Z,100.00
2023-02-26T00:38:05.514Z,100.00
2023-02-26T00:40:45.335Z,100.00
2023-02-26T00:43:23.507Z,100.00
2023-02-26T00:46:02.665Z,100.00
2023-02-26T00:48:42.579Z,100.00
2023-02-26T00:51:21.538Z,100.00
2023-02-26T00:54:05.235Z,100.00
2023-02-26T00:56:34.780Z,100.00
2023-02-26T00:59:05.594Z,100.00
2023-02-26T01:01:35.183Z,100.00
2023-02-26T01:04:07.466Z,100.00
2023-02-26T01:06:41.481Z,100.00
2023-02-26T01:09:18.574Z,100.00
2023-02-26T01:11:49.812Z,100.00
2023-02-26T01:14:23.311Z,100.00
2023-02-26T01:17:01.279Z,100.00
2023-02-26T01:19:37.272Z,100.00
2023-02-26T01:22:15.134Z,100.00
2023-02-26T01:24:48.906Z,100.00
2023-02-26T01:27:17.497Z,100.00
2023-02-26T01:29:49.581Z,100.00
2023-02-26T01:32:25.479Z,100.00
2023-02-26T01:35:01.890Z,100.00
2023-02-26T01:37:37.712Z,100.00
2023-02-26T01:40:32.940Z,100.00
2023-02-26T01:43:09.988Z,100.00
2023-02-26T01:45:57.415Z,100.00
2023-02-26T01:48:36.795Z,100.00
2023-02-26T01:51:07.946Z,100.00
2023-02-26T01:53:36.897Z,100.00
2023-02-26T01:56:14.643Z,100.00
2023-02-26T01:58:44.569Z,100.00
2023-02-26T02:01:15.325Z,100.00
2023-02-26T02:03:45.226Z,100.00
2023-02-26T02:06:20.330Z,100.00
2023-02-26T02:08:49.375Z,100.00
2023-02-26T02:11:18.363Z,100.00
2023-02-26T02:14:05.462Z,100.00
2023-02-26T02:16:43.714Z,100.00
2023-02-26T02:19:51.929Z,100.00
2023-02-26T02:22:47.861Z,100.00
2023-02-26T02:25:41.278Z,100.00
2023-02-26T02:28:26.009Z,100.00
2023-02-26T02:31:08.432Z,100.00
2023-02-26T02:33:47.263Z,100.00
2023-02-26T02:36:21.920Z,100.00
2023-02-26T02:38:55.728Z,100.00
2023-02-26T02:41:29.271Z,100.00
2023-02-26T02:44:02.897Z,100.00
2023-02-26T02:46:37.683Z,100.00
2023-02-26T02:49:10.213Z,100.00
2023-02-26T02:51:42.942Z,100.00
2023-02-26T02:54:15.332Z,100.00
2023-02-26T02:56:49.082Z,100.00
2023-02-26T02:59:20.901Z,100.00
2023-02-26T03:02:01.724Z,100.00
2023-02-26T03:04:30.341Z,100.00
2023-02-26T03:06:59.032Z,100.00
2023-02-26T03:09:29.488Z,100.00
2023-02-26T03:11:58.181Z,100.00
2023-02-26T03:14:27.983Z,100.00
2023-02-26T03:17:18.073Z,100.00
2023-02-26T03:19:57.674Z,100.00
2023-02-26T03:22:32.621Z,100.00
2023-02-26T03:25:09.325Z,100.00
2023-02-26T03:27:46.470Z,100.00
2023-02-26T03:30:19.847Z,100.00
2023-02-26T03:33:00.113Z,100.00
2023-02-26T03:35:37.319Z,100.00
2023-02-26T03:38:11.117Z,100.00
2023-02-26T03:40:42.879Z,100.00
2023-02-26T03:43:19.859Z,100.00
2023-02-26T03:45:52.381Z,100.00
2023-02-26T03:48:28.779Z,100.00
2023-02-26T03:51:03.653Z,100.00
2023-02-26T03:53:36.561Z,100.00
2023-02-26T03:56:09.714Z,100.00
2023-02-26T03:58:38.929Z,100.00
2023-02-26T04:01:10.702Z,100.00
2023-02-26T04:03:46.251Z,100.00
2023-02-26T04:06:15.105Z,100.00
2023-02-26T04:08:44.962Z,100.00
2023-02-26T04:11:17.538Z,100.00
2023-02-26T04:13:46.733Z,100.00
2023-02-26T04:16:15.662Z,100.00
2023-02-26T04:18:45.548Z,100.00
2023-02-26T04:21:14.917Z,100.00
2023-02-26T04:23:43.627Z,100.00
2023-02-26T04:26:13.617Z,100.00
2023-02-26T04:28:42.489Z,100.00
2023-02-26T04:31:11.691Z,100.00
2023-02-26T04:33:40.339Z,100.00
2023-02-26T04:36:11.163Z,100.00
2023-02-26T04:38:39.897Z,100.00
2023-02-26T04:41:08.675Z,100.00
2023-02-26T04:43:38.076Z,100.00
2023-02-26T04:46:06.956Z,100.00
2023-02-26T04:48:35.976Z,100.00
2023-02-26T04:51:04.757Z,100.00
2023-02-26T04:53:34.954Z,100.00
2023-02-26T04:56:03.776Z,100.00
2023-02-26T04:58:32.372Z,100.00
2023-02-26T05:01:01.026Z,100.00
2023-02-26T05:03:29.882Z,100.00
2023-02-26T05:05:58.753Z,100.00
2023-02-26T05:08:27.742Z,100.00
2023-02-26T05:10:57.951Z,100.00
2023-02-26T05:13:27.036Z,100.00
2023-02-26T05:15:56.401Z,100.00
2023-02-26T05:18:24.854Z,100.00
2023-02-26T05:20:54.992Z,100.00
2023-02-26T05:23:24.200Z,100.00
2023-02-26T05:25:52.774Z,100.00
2023-02-26T05:28:23.202Z,100.00
2023-02-26T05:30:52.208Z,100.00
2023-02-26T05:33:20.788Z,100.00
2023-02-26T05:35:49.371Z,100.00
2023-02-26T05:38:17.910Z,100.00
2023-02-26T05:40:46.388Z,100.00
2023-02-26T05:43:14.865Z,100.00
2023-02-26T05:45:44.775Z,100.00
2023-02-26T05:48:13.934Z,100.00
2023-02-26T05:50:42.140Z,100.00
2023-02-26T05:53:10.483Z,100.00
2023-02-26T05:55:39.004Z,100.00
2023-02-26T05:58:07.476Z,100.00
2023-02-26T06:00:36.060Z,100.00
2023-02-26T06:03:06.750Z,100.00
2023-02-26T06:05:36.523Z,100.00
2023-02-26T06:08:05.524Z,100.00
2023-02-26T06:10:34.340Z,100.00
2023-02-26T06:13:02.808Z,100.00
2023-02-26T06:15:31.256Z,100.00
2023-02-26T06:17:59.952Z,100.00
2023-02-26T06:20:30.222Z,100.00
2023-02-26T06:22:59.232Z,100.00
2023-02-26T06:25:27.980Z,100.00
2023-02-26T06:27:56.572Z,100.00
2023-02-26T06:30:25.486Z,100.00
2023-02-26T06:32:53.895Z,100.00
2023-02-26T06:35:22.170Z,100.00
2023-02-26T06:37:52.386Z,100.00
2023-02-26T06:40:20.878Z,100.00
2023-02-26T06:42:49.757Z,100.00
2023-02-26T06:45:18.781Z,100.00
2023-02-26T06:47:47.160Z,100.00
2023-02-26T06:50:15.715Z,100.00
2023-02-26T06:52:44.542Z,100.00
2023-02-26T06:55:14.426Z,100.00
2023-02-26T06:57:43.026Z,100.00
2023-02-26T07:00:12.729Z,100.00
2023-02-26T07:02:41.261Z,100.00
2023-02-26T07:05:11.223Z,100.00
2023-02-26T07:07:40.053Z,100.00
2023-02-26T07:10:09.339Z,100.00
2023-02-26T07:12:39.684Z,100.00
2023-02-26T07:15:09.258Z,100.00
2023-02-26T07:17:37.666Z,100.00
2023-02-26T07:20:10.432Z,100.00
2023-02-26T07:22:40.116Z,100.00
2023-02-26T07:25:09.589Z,100.00
2023-02-26T07:27:43.388Z,100.00
2023-02-26T07:30:13.557Z,100.00
2023-02-26T07:32:42.659Z,100.00
2023-02-26T07:35:11.883Z,100.00
2023-02-26T07:37:40.589Z,100.00
2023-02-26T07:40:11.220Z,100.00
2023-02-26T07:42:42.352Z,100.00
2023-02-26T07:45:12.057Z,100.00
2023-02-26T07:47:40.732Z,100.00
2023-02-26T07:50:11.001Z,100.00
2023-02-26T07:52:39.749Z,100.00
2023-02-26T07:55:09.499Z,100.00
2023-02-26T07:57:38.105Z,100.00
2023-02-26T08:00:09.905Z,100.00
2023-02-26T08:02:38.541Z,100.00
2023-02-26T08:05:07.242Z,100.00
2023-02-26T08:07:35.677Z,100.00
2023-02-26T08:10:05.549Z,100.00
2023-02-26T08:12:34.493Z,100.00
2023-02-26T08:15:04.211Z,100.00
2023-02-26T08:17:34.381Z,100.00
2023-02-26T08:20:03.599Z,100.00
2023-02-26T08:22:31.812Z,100.00
2023-02-26T08:25:00.557Z,100.00
2023-02-26T08:27:30.081Z,100.00
2023-02-26T08:29:58.538Z,100.00
2023-02-26T08:32:28.397Z,100.00
2023-02-26T08:34:58.834Z,100.00
2023-02-26T08:37:27.837Z,100.00
2023-02-26T08:39:57.014Z,100.00
2023-02-26T08:42:25.506Z,100.00
2023-02-26T08:44:54.112Z,100.00
2023-02-26T08:47:28.819Z,100.00
2023-02-26T08:50:01.015Z,100.00
2023-02-26T08:52:41.589Z,99.93
2023-02-26T08:55:16.313Z,100.00
2023-02-26T08:57:48.113Z,97.92
2023-02-26T09:00:21.506Z,96.19
2023-02-26T09:02:52.185Z,96.76
2023-02-26T09:05:25.891Z,99.63
2023-02-26T09:07:54.541Z,100.00
2023-02-26T09:10:23.147Z,100.00
2023-02-26T09:12:52.797Z,100.00
2023-02-26T09:15:21.995Z,100.00
2023-02-26T09:17:51.922Z,100.00
2023-02-26T09:20:22.642Z,100.00
2023-02-26T09:22:51.180Z,100.00
2023-02-26T09:25:19.877Z,100.00
2023-02-26T09:27:48.308Z,100.00
2023-02-26T09:30:17.730Z,100.00
2023-02-26T09:32:46.979Z,95.23
2023-02-26T09:35:15.733Z,87.81
2023-02-26T09:37:45.946Z,89.84
2023-02-26T09:40:26.104Z,87.17
2023-02-26T09:43:10.149Z,80.62
2023-02-26T09:45:44.468Z,76.42
2023-02-26T09:48:17.949Z,71.82
2023-02-26T09:50:49.619Z,70.85
2023-02-26T09:53:24.239Z,71.28
2023-02-26T09:55:56.214Z,69.90
2023-02-26T09:58:30.168Z,69.88
2023-02-26T10:01:03.370Z,67.35
2023-02-26T10:03:37.725Z,67.66
2023-02-26T10:06:20.859Z,67.73
2023-02-26T10:09:03.980Z,67.68
2023-02-26T10:11:38.606Z,69.46
2023-02-26T10:14:13.695Z,68.02
2023-02-26T10:16:47.764Z,67.71
2023-02-26T10:19:21.050Z,66.94
2023-02-26T10:21:54.849Z,66.93
2023-02-26T10:24:28.870Z,65.64
2023-02-26T10:27:14.127Z,65.45
2023-02-26T10:29:50.019Z,65.48
2023-02-26T10:32:27.023Z,64.92
2023-02-26T10:34:59.643Z,64.39
2023-02-26T10:37:41.567Z,63.13
2023-02-26T10:40:19.061Z,61.57
2023-02-26T10:42:52.523Z,61.97
2023-02-26T10:45:42.949Z,62.29
2023-02-26T10:48:35.998Z,62.41
2023-02-26T10:51:17.636Z,61.85
2023-02-26T10:53:51.504Z,60.49
2023-02-26T10:56:24.677Z,59.94
2023-02-26T10:58:55.114Z,59.58
2023-02-26T11:01:26.789Z,58.95
2023-02-26T11:04:01.284Z,57.72
2023-02-26T11:06:33.474Z,56.69
2023-02-26T11:09:04.047Z,56.37
2023-02-26T11:11:47.845Z,57.26
2023-02-26T11:14:17.048Z,61.19
2023-02-26T11:16:50.428Z,63.78
2023-02-26T11:19:21.553Z,65.32
2023-02-26T11:21:52.274Z,67.57
2023-02-26T11:24:30.142Z,69.68
2023-02-26T11:27:04.443Z,69.20
2023-02-26T11:29:40.066Z,69.45
2023-02-26T11:32:09.904Z,70.92
2023-02-26T11:34:38.973Z,66.92
2023-02-26T11:37:08.191Z,66.75
2023-02-26T11:39:40.248Z,65.22
2023-02-26T11:42:13.323Z,66.57
2023-02-26T11:44:45.722Z,65.46
2023-02-26T11:47:17.468Z,60.94
2023-02-26T11:49:51.748Z,61.19
2023-02-26T11:52:23.980Z,61.91
2023-02-26T11:54:56.907Z,63.05
2023-02-26T11:57:30.221Z,65.16
2023-02-26T12:00:02.303Z,63.55
2023-02-26T12:02:36.512Z,61.15
2023-02-26T12:05:08.800Z,60.08
2023-02-26T12:07:38.951Z,58.83
2023-02-26T12:10:17.120Z,57.07
2023-02-26T12:13:02.681Z,56.89
2023-02-26T12:15:37.759Z,56.11
2023-02-26T12:18:30.027Z,56.57
2023-02-26T12:21:11.395Z,58.39
2023-02-26T12:24:02.833Z,58.47
2023-02-26T12:26:35.111Z,58.56
2023-02-26T12:29:24.074Z,58.62
2023-02-26T12:32:16.998Z,58.03
2023-02-26T12:35:13.264Z,56.88
2023-02-26T12:37:56.171Z,56.28
2023-02-26T12:40:45.279Z,55.79
2023-02-26T12:43:22.010Z,55.30
2023-02-26T12:45:56.775Z,55.90
2023-02-26T12:48:46.853Z,56.90
2023-02-26T12:51:30.985Z,57.89
2023-02-26T12:54:11.388Z,58.04
2023-02-26T12:57:08.389Z,57.62
2023-02-26T13:00:16.433Z,57.72
2023-02-26T13:03:22.272Z,58.48
2023-02-26T13:06:06.209Z,58.80
2023-02-26T13:08:43.787Z,59.01
2023-02-26T13:11:23.364Z,58.01
2023-02-26T13:14:14.312Z,56.92
2023-02-26T13:16:52.141Z,56.31
2023-02-26T13:19:34.838Z,55.95
2023-02-26T13:22:08.040Z,56.37
2023-02-26T13:24:39.998Z,54.98
2023-02-26T13:27:11.306Z,55.61
2023-02-26T13:29:47.895Z,54.96
2023-02-26T13:32:21.285Z,54.33
2023-02-26T13:34:59.004Z,54.16
2023-02-26T13:37:31.095Z,54.18
2023-02-26T13:40:19.205Z,53.64
2023-02-26T13:42:55.063Z,55.14
2023-02-26T13:45:36.271Z,56.59
2023-02-26T13:48:22.433Z,56.66
2023-02-26T13:51:04.422Z,56.53
2023-02-26T13:53:59.296Z,56.47
2023-02-26T13:56:54.916Z,54.71
2023-02-26T13:59:33.371Z,54.58
2023-02-26T14:02:04.675Z,54.49
2023-02-26T14:04:50.770Z,53.89
2023-02-26T14:07:50.694Z,54.85
2023-02-26T14:10:26.434Z,53.17
2023-02-26T14:13:10.565Z,52.69
2023-02-26T14:15:44.951Z,53.10
2023-02-26T14:18:29.317Z,53.87
2023-02-26T14:21:37.528Z,54.04
2023-02-26T14:24:17.573Z,54.14
2023-02-26T14:26:48.640Z,53.90
2023-02-26T14:29:24.433Z,53.93
2023-02-26T14:32:05.360Z,53.44
2023-02-26T14:34:37.886Z,54.05
2023-02-26T14:37:10.182Z,53.50
2023-02-26T14:39:45.360Z,54.18
2023-02-26T14:42:18.839Z,54.24
2023-02-26T14:44:50.783Z,53.47
2023-02-26T14:47:19.885Z,54.02
2023-02-26T14:49:54.516Z,53.06
2023-02-26T14:52:48.421Z,53.69
2023-02-26T14:55:56.149Z,53.54
2023-02-26T14:58:45.499Z,53.34
2023-02-26T15:01:32.197Z,53.85
2023-02-26T15:04:17.539Z,54.62
2023-02-26T15:07:04.124Z,54.55
2023-02-26T15:09:47.110Z,54.24
2023-02-26T15:12:33.508Z,53.48
2023-02-26T15:15:17.121Z,53.73
2023-02-26T15:17:57.885Z,54.28
2023-02-26T15:20:33.139Z,54.85
2023-02-26T15:23:26.688Z,54.29
2023-02-26T15:25:58.760Z,55.16
2023-02-26T15:28:36.248Z,54.66
2023-02-26T15:31:06.472Z,55.14
2023-02-26T15:33:36.195Z,54.64
2023-02-26T15:36:10.196Z,54.93
2023-02-26T15:38:44.439Z,54.95
2023-02-26T15:41:14.275Z,55.22
2023-02-26T15:44:25.090Z,54.67
2023-02-26T15:47:24.484Z,55.08
2023-02-26T15:49:55.009Z,54.98
2023-02-26T15:52:26.629Z,55.03
2023-02-26T15:55:01.130Z,55.13
2023-02-26T15:57:31.511Z,55.03
2023-02-26T16:00:08.552Z,55.73
2023-02-26T16:02:37.952Z,55.96
2023-02-26T16:05:07.166Z,56.63
2023-02-26T16:07:35.648Z,55.86
2023-02-26T16:10:07.987Z,55.70
2023-02-26T16:12:40.602Z,56.09
2023-02-26T16:15:15.386Z,56.51
2023-02-26T16:17:45.864Z,56.48
2023-02-26T16:20:18.847Z,56.82
2023-02-26T16:22:51.498Z,57.36
2023-02-26T16:25:27.688Z,57.62
2023-02-26T16:28:01.858Z,58.79
2023-02-26T16:30:36.563Z,58.65
2023-02-26T16:33:06.712Z,58.66
2023-02-26T16:35:40.302Z,58.67
2023-02-26T16:38:19.076Z,58.63
2023-02-26T16:40:50.112Z,59.17
2023-02-26T16:43:36.903Z,59.23
2023-02-26T16:46:07.864Z,59.89
2023-02-26T16:48:41.806Z,59.61
2023-02-26T16:51:16.204Z,60.46
2023-02-26T16:53:49.097Z,62.00
2023-02-26T16:56:20.543Z,62.20
2023-02-26T16:58:52.769Z,62.22
2023-02-26T17:01:24.878Z,62.27
2023-02-26T17:04:01.720Z,62.06
2023-02-26T17:06:31.935Z,61.82
2023-02-26T17:09:02.161Z,62.57
2023-02-26T17:11:33.404Z,62.36
2023-02-26T17:14:22.816Z,62.27
2023-02-26T17:16:54.243Z,62.91
2023-02-26T17:19:22.610Z,62.80
2023-02-26T17:21:54.388Z,63.11
2023-02-26T17:24:28.064Z,62.92
2023-02-26T17:26:56.700Z,63.37
2023-02-26T17:29:32.243Z,63.43
2023-02-26T17:32:02.553Z,63.80
2023-02-26T17:34:31.119Z,64.00
2023-02-26T17:37:05.849Z,63.96
2023-02-26T17:39:34.465Z,64.35
2023-02-26T17:42:02.847Z,64.40
2023-02-26T17:44:31.645Z,65.34
2023-02-26T17:47:01.978Z,65.71
2023-02-26T17:49:31.109Z,65.28
2023-02-26T17:52:00.360Z,66.39
2023-02-26T17:54:28.896Z,66.67
2023-02-26T17:56:57.876Z,66.32
2023-02-26T17:59:29.315Z,66.62
2023-02-26T18:01:58.171Z,67.38
2023-02-26T18:04:29.831Z,67.45
2023-02-26T18:06:58.861Z,67.90
2023-02-26T18:09:27.421Z,68.12
2023-02-26T18:11:56.108Z,68.78
2023-02-26T18:14:26.162Z,70.41
2023-02-26T18:16:55.693Z,68.86
2023-02-26T18:19:24.488Z,69.62
2023-02-26T18:21:54.322Z,69.08
2023-02-26T18:24:23.386Z,68.76
2023-02-26T18:26:53.221Z,69.35
2023-02-26T18:29:22.342Z,70.41
2023-02-26T18:31:51.092Z,70.66
2023-02-26T18:34:21.034Z,70.90
2023-02-26T18:36:49.712Z,70.69
2023-02-26T18:39:20.959Z,71.19
2023-02-26T18:41:49.630Z,70.97
2023-02-26T18:44:18.169Z,72.82
2023-02-26T18:46:47.145Z,71.92
2023-02-26T18:49:18.591Z,72.84
2023-02-26T18:51:47.328Z,72.72
2023-02-26T18:54:16.036Z,73.10
2023-02-26T18:56:47.370Z,73.19
2023-02-26T18:59:16.225Z,73.37
2023-02-26T19:01:45.752Z,73.58
2023-02-26T19:04:15.932Z,73.67
2023-02-26T19:06:44.959Z,73.93
2023-02-26T19:09:13.844Z,73.71
2023-02-26T19:11:43.261Z,74.10
2023-02-26T19:14:15.020Z,74.09
2023-02-26T19:16:44.217Z,74.56
2023-02-26T19:19:13.334Z,75.11
2023-02-26T19:21:42.541Z,76.74
2023-02-26T19:24:13.455Z,75.83
2023-02-26T19:26:42.878Z,76.30
2023-02-26T19:29:17.788Z,77.45
2023-02-26T19:31:47.130Z,79.41
2023-02-26T19:34:16.035Z,78.78
2023-02-26T19:36:48.454Z,79.01
2023-02-26T19:39:18.613Z,80.34
2023-02-26T19:41:49.463Z,80.97
2023-02-26T19:44:20.478Z,82.25
2023-02-26T19:46:50.104Z,82.14
2023-02-26T19:49:20.110Z,81.85
2023-02-26T19:51:48.525Z,81.79
2023-02-26T19:54:17.285Z,82.24
2023-02-26T19:56:46.622Z,83.73
2023-02-26T19:59:18.900Z,83.75
2023-02-26T20:01:49.862Z,82.93
2023-02-26T20:04:19.374Z,82.22
2023-02-26T20:06:47.830Z,81.42
2023-02-26T20:09:17.427Z,81.68
2023-02-26T20:11:46.287Z,81.64
2023-02-26T20:14:14.948Z,80.93
2023-02-26T20:16:43.831Z,81.36
2023-02-26T20:19:13.915Z,81.01
2023-02-26T20:21:43.073Z,80.23
2023-02-26T20:24:11.735Z,80.42
2023-02-26T20:26:40.504Z,80.10
2023-02-26T20:29:09.387Z,80.81
2023-02-26T20:31:38.458Z,81.09
2023-02-26T20:34:06.990Z,80.21
2023-02-26T20:36:37.216Z,80.51
2023-02-26T20:39:07.237Z,81.08
2023-02-26T20:41:35.711Z,81.82
2023-02-26T20:44:04.004Z,81.32
2023-02-26T20:46:35.946Z,80.33
2023-02-26T20:49:04.564Z,80.06
2023-02-26T20:51:33.756Z,79.31
2023-02-26T20:54:03.477Z,79.24
2023-02-26T20:56:31.926Z,79.40
2023-02-26T20:59:00.390Z,79.44
2023-02-26T21:01:35.736Z,79.24
2023-02-26T21:04:06.126Z,79.60
2023-02-26T21:06:35.000Z,80.53
2023-02-26T21:09:09.346Z,80.40
2023-02-26T21:11:38.694Z,80.90
2023-02-26T21:14:08.863Z,82.07
2023-02-26T21:16:38.790Z,82.76
2023-02-26T21:19:07.308Z,82.70
2023-02-26T21:21:35.848Z,82.71
2023-02-26T21:24:06.188Z,83.46
2023-02-26T21:26:35.338Z,83.49
2023-02-26T21:29:05.509Z,83.18
2023-02-26T21:31:33.708Z,83.92
2023-02-26T21:34:17.303Z,84.40
2023-02-26T21:36:50.574Z,84.27
2023-02-26T21:39:20.806Z,84.00
2023-02-26T21:41:51.140Z,85.00
2023-02-26T21:44:19.512Z,85.53
2023-02-26T21:46:48.204Z,86.03
2023-02-26T21:49:16.715Z,86.37
2023-02-26T21:51:45.434Z,86.80
2023-02-26T21:54:13.678Z,86.60
2023-02-26T21:56:43.725Z,87.90
2023-02-26T21:59:13.549Z,88.29
2023-02-26T22:01:42.288Z,87.70
2023-02-26T22:04:10.988Z,89.07
2023-02-26T22:06:39.921Z,88.84
2023-02-26T22:09:08.164Z,88.60
2023-02-26T22:11:36.688Z,88.70
2023-02-26T22:14:06.571Z,90.28
2023-02-26T22:16:34.911Z,91.47
2023-02-26T22:19:03.688Z,92.33
2023-02-26T22:21:32.000Z,92.51
2023-02-26T22:24:02.254Z,92.83
2023-02-26T22:26:31.554Z,93.25
2023-02-26T22:29:01.032Z,93.64
2023-02-26T22:31:32.246Z,93.49
2023-02-26T22:34:01.058Z,93.85
2023-02-26T22:36:31.506Z,94.96
2023-02-26T22:39:00.025Z,94.42
2023-02-26T22:41:28.430Z,95.01
2023-02-26T22:43:57.128Z,96.52
2023-02-26T22:46:28.593Z,97.92
2023-02-26T22:48:58.716Z,96.70
2023-02-26T22:51:28.753Z,97.16
2023-02-26T22:53:58.922Z,98.02
2023-02-26T22:56:27.421Z,99.07
2023-02-26T22:58:57.317Z,98.32
2023-02-26T23:01:26.246Z,99.07
2023-02-26T23:03:54.641Z,100.00
2023-02-26T23:06:24.530Z,100.00
2023-02-26T23:08:53.026Z,100.00
2023-02-26T23:11:21.399Z,100.00
2023-02-26T23:13:49.982Z,100.00
2023-02-26T23:16:18.367Z,100.00
2023-02-26T23:18:48.231Z,100.00
2023-02-26T23:21:17.066Z,100.00
2023-02-26T23:23:48.752Z,100.00
2023-02-26T23:26:17.127Z,100.00
2023-02-26T23:28:45.810Z,100.00
2023-02-26T23:31:21.101Z,100.00
2023-02-26T23:33:50.152Z,100.00
2023-02-26T23:36:18.783Z,100.00
2023-02-26T23:38:48.783Z,100.00
2023-02-26T23:41:17.560Z,100.00
2023-02-26T23:43:46.201Z,100.00
2023-02-26T23:46:14.758Z,100.00
2023-02-26T23:48:43.212Z,100.00
2023-02-26T23:51:11.686Z,100.00
2023-02-26T23:53:40.718Z,100.00
2023-02-26T23:56:10.803Z,100.00
2023-02-26T23:58:39.506Z,100.00
